Terminal Aerodrome Forecast
Issued by NWS Austin/San Antonio, TX

Home | Current Version | Previous Version | Text Only | Print | Product List | Glossary On
Versions: 1 2 3 4 5 6 7 8 9 10 11 12 13 14 15 16 17 18
131
FTUS44 KEWX 250542
TAFAUS
TAF
KAUS 250542Z 2506/2612 19010KT P6SM SCT040 BKN100
     FM250800 13006KT P6SM OVC015
     FM251000 12003KT 2SM BR OVC006
     FM251500 11007KT P6SM VCSH BKN015
      TEMPO 2515/2519 5SM TSRA BKN028CB
     FM251900 08005KT P6SM BKN040 PROB30 2519/2601 -TSRA BKN035CB
     FM260100 03005KT P6SM -SHRA BKN030=

USA.gov is the U.S. government's official web portal to all federal, state and local government web resources and services.